Time;durP1;ratioP1;P1;durP2;ratioP2;P2;SDS_P1;SDS_P2;PMS_P1;PMS_P2;Temp;Humidity;BMP_temperature;BMP_pressure;BME280_temperature;BME280_humidity;BME280_pressure;Samples;Min_cycle;Max_cycle;Signal;HPM_P1;HPM_P2
2022/11/27 00:01:44;;;;;;;31.47;15.40;;;9.30;1.00;;;;;;5088515;28;20225;-82
2022/11/27 00:04:12;;;;;;;32.17;17.10;;;9.40;1.00;;;;;;5091203;28;20507;-82
2022/11/27 00:06:40;;;;;;;27.70;17.10;;;9.40;1.00;;;;;;5091307;28;20451;-82
2022/11/27 00:09:16;;;;;;;25.40;15.83;;;9.40;1.00;;;;;;5086494;28;20540;-82
2022/11/27 00:11:45;;;;;;;30.37;16.73;;;9.40;1.00;;;;;;5087097;28;21052;-82
2022/11/27 00:14:13;;;;;;;28.30;16.90;;;9.40;1.00;;;;;;5087649;28;20556;-82
2022/11/27 00:16:44;;;;;;;25.90;16.00;;;9.40;1.00;;;;;;5090695;28;20238;-83
2022/11/27 00:19:14;;;;;;;34.13;16.97;;;9.40;1.00;;;;;;5057870;28;20474;-80
2022/11/27 00:21:44;;;;;;;29.80;17.67;;;9.40;1.00;;;;;;5060978;28;20410;-84
2022/11/27 00:24:14;;;;;;;25.38;16.10;;;9.30;1.00;;;;;;5079947;28;20477;-82
2022/11/27 00:29:43;;;;;;;25.00;15.93;;;9.20;1.00;;;;;;5068721;27;21403;-80
2022/11/27 00:32:15;;;;;;;20.27;14.00;;;9.20;1.00;;;;;;5088793;28;20467;-82
2022/11/27 00:34:44;;;;;;;22.88;16.33;;;9.20;1.00;;;;;;5091956;28;20416;-84
2022/11/27 00:37:16;;;;;;;27.50;15.73;;;9.20;1.00;;;;;;5082275;28;20235;-83
2022/11/27 00:39:49;;;;;;;26.03;15.43;;;9.10;1.00;;;;;;5077529;28;20414;-83
2022/11/27 00:42:26;;;;;;;29.52;15.07;;;9.10;1.00;;;;;;5072810;28;20418;-82
2022/11/27 00:44:56;;;;;;;24.50;14.60;;;9.10;1.00;;;;;;5085554;28;20242;-84
2022/11/27 00:47:26;;;;;;;24.90;14.80;;;9.10;1.00;;;;;;5060520;28;20418;-82
2022/11/27 00:49:57;;;;;;;24.33;14.83;;;9.10;1.00;;;;;;5090369;27;20279;-80
2022/11/27 00:52:27;;;;;;;21.17;14.43;;;9.20;1.00;;;;;;5070977;28;20451;-81
2022/11/27 00:54:56;;;;;;;28.33;15.45;;;9.20;1.00;;;;;;5081271;28;20481;-81
2022/11/27 00:57:29;;;;;;;22.10;14.63;;;9.10;1.00;;;;;;5074451;27;20245;-81
2022/11/27 00:59:56;;;;;;;25.90;14.33;;;9.10;1.00;;;;;;5081762;27;20472;-83
2022/11/27 01:02:26;;;;;;;24.43;14.60;;;9.10;1.00;;;;;;5078164;27;20414;-82
2022/11/27 01:04:56;;;;;;;26.53;15.67;;;9.10;1.00;;;;;;5082501;27;20538;-82
2022/11/27 01:07:27;;;;;;;21.80;15.50;;;9.00;1.00;;;;;;5064803;27;20423;-81
2022/11/27 01:09:55;;;;;;;23.67;14.68;;;8.90;1.00;;;;;;5079189;28;20491;-82
2022/11/27 01:12:43;;;;;;;22.20;14.70;;;8.90;1.00;;;;;;5087596;28;20229;-81
2022/11/27 01:15:13;;;;;;;22.57;14.57;;;8.90;1.00;;;;;;5077870;28;20472;-81
2022/11/27 01:17:55;;;;;;;26.17;15.00;;;8.90;1.00;;;;;;5094546;28;20444;-84
2022/11/27 01:20:22;;;;;;;22.63;15.45;;;9.00;1.00;;;;;;5086187;28;20496;-81
2022/11/27 01:22:56;;;;;;;25.43;14.40;;;9.00;1.00;;;;;;5088259;28;20240;-81
2022/11/27 01:25:25;;;;;;;24.77;15.30;;;9.10;1.00;;;;;;5091631;28;21393;-80
2022/11/27 01:27:56;;;;;;;20.73;12.82;;;8.90;1.00;;;;;;5095155;28;20444;-80
2022/11/27 01:30:25;;;;;;;18.57;13.80;;;8.80;1.00;;;;;;5081099;27;20268;-82
2022/11/27 01:32:55;;;;;;;23.67;14.27;;;8.80;1.00;;;;;;5093471;28;20400;-84
2022/11/27 01:35:25;;;;;;;19.48;13.75;;;8.90;1.00;;;;;;5078298;28;21204;-83
2022/11/27 01:37:55;;;;;;;23.47;14.90;;;8.80;1.00;;;;;;5100044;28;20227;-84
2022/11/27 01:40:25;;;;;;;19.47;13.60;;;8.80;1.00;;;;;;5087772;28;21337;-84
2022/11/27 01:46:00;;;;;;;21.73;14.30;;;8.90;1.00;;;;;;5077214;28;20528;-84
2022/11/27 01:48:27;;;;;;;20.63;13.90;;;8.90;1.00;;;;;;5091037;28;21179;-82
2022/11/27 01:50:54;;;;;;;24.57;15.43;;;9.00;1.00;;;;;;5079639;28;21292;-82
2022/11/27 01:53:27;;;;;;;22.87;14.30;;;9.00;1.00;;;;;;5087984;28;20486;-82
2022/11/27 01:56:00;;;;;;;22.70;15.33;;;9.00;1.00;;;;;;5086501;28;20577;-82
2022/11/27 01:58:31;;;;;;;24.87;14.60;;;9.00;1.00;;;;;;5090697;28;20434;-81
2022/11/27 02:01:00;;;;;;;23.00;14.33;;;8.80;1.00;;;;;;5085507;28;20467;-82
2022/11/27 02:03:27;;;;;;;27.47;14.00;;;8.80;1.00;;;;;;5092652;28;20996;-81
2022/11/27 02:05:56;;;;;;;22.75;14.73;;;8.80;1.00;;;;;;5094351;28;20479;-81
2022/11/27 02:08:23;;;;;;;20.98;14.10;;;8.80;1.00;;;;;;5087071;28;21090;-81
2022/11/27 02:11:04;;;;;;;20.50;12.80;;;8.80;1.00;;;;;;5098468;28;20243;-83
2022/11/27 02:13:38;;;;;;;24.00;15.90;;;8.80;1.00;;;;;;5093919;28;20462;-82
2022/11/27 02:16:12;;;;;;;27.98;15.93;;;8.80;1.00;;;;;;5079650;28;20562;-81
2022/11/27 02:18:45;;;;;;;24.60;15.30;;;8.70;1.00;;;;;;5078928;28;20351;-81
2022/11/27 02:21:20;;;;;;;25.85;15.85;;;8.60;1.00;;;;;;5084121;28;20470;-81
2022/11/27 02:24:21;;;;;;;20.90;15.95;;;8.50;1.00;;;;;;5078730;28;20962;-81
2022/11/27 02:27:23;;;;;;;22.02;13.57;;;8.40;1.00;;;;;;5084947;28;20331;-80
2022/11/27 02:29:56;;;;;;;22.17;14.65;;;8.30;1.00;;;;;;5071408;28;20229;-80
2022/11/27 02:32:29;;;;;;;25.30;14.80;;;8.20;1.00;;;;;;5077990;28;20233;-82
2022/11/27 02:35:05;;;;;;;26.40;17.48;;;8.10;1.00;;;;;;5097708;28;20278;-83
2022/11/27 02:37:39;;;;;;;28.48;17.95;;;8.00;1.00;;;;;;5092216;28;20299;-81
2022/11/27 02:40:11;;;;;;;27.20;18.30;;;7.90;1.00;;;;;;5092803;28;20243;-81
2022/11/27 02:42:44;;;;;;;26.23;16.17;;;7.90;1.00;;;;;;5082496;28;20308;-80
2022/11/27 02:45:16;;;;;;;24.50;16.25;;;7.90;1.00;;;;;;5082660;28;20243;-82
2022/11/27 02:47:46;;;;;;;25.33;18.60;;;7.80;1.00;;;;;;5087594;28;20238;-83
2022/11/27 02:50:17;;;;;;;30.20;19.48;;;7.80;1.00;;;;;;5091586;28;20400;-82
2022/11/27 02:52:48;;;;;;;25.40;18.20;;;7.80;1.00;;;;;;5088339;28;20228;-82
2022/11/27 02:55:18;;;;;;;26.38;17.80;;;7.80;1.00;;;;;;5091975;28;20275;-83
2022/11/27 02:57:48;;;;;;;31.33;19.23;;;7.90;1.00;;;;;;5086173;28;20221;-83
2022/11/27 03:00:17;;;;;;;29.23;17.15;;;7.90;1.00;;;;;;5074677;28;20326;-80
2022/11/27 03:02:49;;;;;;;27.60;17.45;;;7.80;1.00;;;;;;5080065;28;20238;-80
2022/11/27 03:05:19;;;;;;;30.42;16.80;;;7.80;1.00;;;;;;5085565;28;20225;-83
2022/11/27 03:07:58;;;;;;;26.00;17.27;;;7.80;1.00;;;;;;5083954;28;20920;-83
2022/11/27 03:10:37;;;;;;;25.95;16.48;;;7.80;1.00;;;;;;5076074;28;20244;-83
2022/11/27 03:13:04;;;;;;;26.48;16.42;;;7.80;1.00;;;;;;5093159;28;20242;-79
2022/11/27 03:15:41;;;;;;;27.25;16.52;;;7.80;1.00;;;;;;5090796;28;20244;-83
2022/11/27 03:18:17;;;;;;;25.83;16.65;;;7.80;1.00;;;;;;5083089;28;20291;-81
2022/11/27 03:20:49;;;;;;;25.85;17.20;;;7.80;1.00;;;;;;5090500;28;20262;-80
2022/11/27 03:23:16;;;;;;;25.83;18.30;;;7.80;1.00;;;;;;5090487;27;20237;-81
2022/11/27 03:25:43;;;;;;;28.48;16.33;;;7.70;1.00;;;;;;5082748;28;20242;-82
2022/11/27 03:28:19;;;;;;;24.20;17.00;;;7.70;1.00;;;;;;5084321;28;20240;-81
2022/11/27 03:30:47;;;;;;;29.50;16.83;;;7.70;1.00;;;;;;5088369;28;20289;-82
2022/11/27 03:33:19;;;;;;;31.85;16.85;;;7.60;1.00;;;;;;5083396;28;20227;-80
2022/11/27 03:35:49;;;;;;;26.35;17.50;;;7.70;1.00;;;;;;5085506;28;20239;-81
2022/11/27 03:38:18;;;;;;;21.73;16.60;;;7.70;1.00;;;;;;5098553;27;20237;-82
2022/11/27 03:40:57;;;;;;;27.13;16.65;;;7.80;1.00;;;;;;5082158;27;20459;-81
2022/11/27 03:43:30;;;;;;;22.23;16.63;;;7.70;1.00;;;;;;5081073;27;20253;-79
2022/11/27 03:46:01;;;;;;;24.80;17.60;;;7.60;1.00;;;;;;5075756;28;20228;-79
2022/11/27 03:48:35;;;;;;;26.13;16.35;;;7.60;1.00;;;;;;5096421;27;20298;-81
2022/11/27 03:51:10;;;;;;;28.13;17.27;;;7.50;1.00;;;;;;5093426;28;20346;-81
2022/11/27 03:53:51;;;;;;;24.48;17.38;;;7.60;1.00;;;;;;5079819;28;20259;-81
2022/11/27 03:56:26;;;;;;;22.90;16.45;;;7.60;1.00;;;;;;5084900;28;20243;-80
2022/11/27 03:58:59;;;;;;;26.67;18.13;;;7.50;1.00;;;;;;5090206;28;20241;-82
2022/11/27 04:01:32;;;;;;;26.98;18.08;;;7.40;1.00;;;;;;5091485;28;20263;-82
2022/11/27 04:03:59;;;;;;;27.13;18.13;;;7.50;1.00;;;;;;5089034;28;21134;-82
2022/11/27 04:06:28;;;;;;;26.35;17.13;;;7.50;1.00;;;;;;5091668;28;20241;-83
2022/11/27 04:08:55;;;;;;;25.38;15.90;;;7.60;1.00;;;;;;5091321;28;20305;-84
2022/11/27 04:11:26;;;;;;;23.90;16.58;;;7.60;1.00;;;;;;5087575;28;20325;-82
2022/11/27 04:13:53;;;;;;;25.60;17.17;;;7.50;1.00;;;;;;5090371;28;20251;-82
2022/11/27 04:16:21;;;;;;;24.55;18.13;;;7.50;1.00;;;;;;5091726;28;20233;-81
2022/11/27 04:18:49;;;;;;;29.50;18.63;;;7.50;1.00;;;;;;5092738;28;20239;-80
2022/11/27 04:21:17;;;;;;;24.90;16.50;;;7.50;1.00;;;;;;5085408;28;20267;-81
2022/11/27 04:23:45;;;;;;;28.58;17.55;;;7.40;1.00;;;;;;5086000;28;20268;-79
2022/11/27 04:26:15;;;;;;;25.08;16.25;;;7.30;1.00;;;;;;5083609;28;20271;-81
2022/11/27 04:28:53;;;;;;;25.02;17.30;;;7.20;1.00;;;;;;5095838;28;20264;-80
2022/11/27 04:31:19;;;;;;;31.52;16.58;;;7.20;1.00;;;;;;5101809;28;20275;-79
2022/11/27 04:33:49;;;;;;;28.00;16.25;;;7.10;1.00;;;;;;5093072;28;20239;-82
2022/11/27 04:36:16;;;;;;;26.20;16.13;;;7.00;1.00;;;;;;5093400;27;21110;-82
2022/11/27 04:38:43;;;;;;;22.85;15.32;;;7.00;1.00;;;;;;5098363;28;20271;-82
2022/11/27 04:41:10;;;;;;;23.50;17.00;;;7.00;1.00;;;;;;5089193;28;20818;-81
2022/11/27 04:43:37;;;;;;;24.10;15.52;;;6.90;1.00;;;;;;5087417;28;20264;-81
2022/11/27 04:46:07;;;;;;;24.63;15.98;;;6.80;1.00;;;;;;5082813;28;20244;-81
2022/11/27 04:48:38;;;;;;;24.48;15.43;;;6.70;1.00;;;;;;5079392;28;20313;-82
2022/11/27 04:51:06;;;;;;;23.70;16.27;;;6.70;1.00;;;;;;5082320;28;20287;-81
2022/11/27 04:53:33;;;;;;;27.02;17.98;;;6.60;1.00;;;;;;5085861;28;20236;-82
2022/11/27 04:56:00;;;;;;;24.40;16.23;;;6.60;1.00;;;;;;5087175;28;20247;-82
2022/11/27 04:58:28;;;;;;;28.05;17.17;;;6.60;1.00;;;;;;5085993;28;21181;-82
2022/11/27 05:00:58;;;;;;;20.55;16.27;;;6.60;1.00;;;;;;5086926;28;20253;-82
2022/11/27 05:03:34;;;;;;;23.92;15.93;;;6.60;1.00;;;;;;5081461;27;20360;-83
2022/11/27 05:06:46;;;;;;;23.55;15.35;;;6.50;1.00;;;;;;5087261;28;20234;-82
2022/11/27 05:09:47;;;;;;;23.08;15.77;;;6.40;1.00;;;;;;5082656;28;20232;-81
2022/11/27 05:12:35;;;;;;;20.77;15.10;;;6.40;1.00;;;;;;4959798;28;20267;-82
2022/11/27 05:15:18;;;;;;;26.83;16.08;;;6.30;1.00;;;;;;5047757;28;20277;-83
2022/11/27 05:17:45;;;;;;;23.80;15.35;;;6.20;1.00;;;;;;5087239;28;20242;-81
2022/11/27 05:20:12;;;;;;;20.77;14.77;;;6.10;1.00;;;;;;5088155;28;20253;-82
2022/11/27 05:22:47;;;;;;;23.92;14.75;;;6.10;1.00;;;;;;5076072;28;20221;-82
2022/11/27 05:25:13;;;;;;;21.77;14.90;;;6.00;1.00;;;;;;5087115;28;20259;-81
2022/11/27 05:27:41;;;;;;;23.42;15.88;;;5.80;1.00;;;;;;5097398;28;20234;-81
2022/11/27 05:30:09;;;;;;;20.88;14.57;;;5.80;1.00;;;;;;5095875;28;20242;-82
2022/11/27 05:33:01;;;;;;;23.00;14.70;;;5.70;1.00;;;;;;5094318;28;20241;-81
2022/11/27 05:35:27;;;;;;;23.42;15.45;;;5.60;1.00;;;;;;5093620;28;20245;-81
2022/11/27 05:37:59;;;;;;;23.38;14.95;;;5.60;1.00;;;;;;5096307;28;20308;-81
2022/11/27 05:40:28;;;;;;;27.20;16.17;;;5.60;1.00;;;;;;5096901;28;20249;-83
2022/11/27 05:43:04;;;;;;;28.33;16.77;;;5.50;1.00;;;;;;5090217;28;20996;-81
2022/11/27 05:45:31;;;;;;;24.30;13.82;;;5.60;1.00;;;;;;5093185;28;20243;-82
2022/11/27 05:48:01;;;;;;;23.50;14.27;;;5.60;1.00;;;;;;5091440;28;20235;-82
2022/11/27 05:50:28;;;;;;;23.70;14.63;;;5.60;1.00;;;;;;5093718;28;20274;-82
2022/11/27 05:53:01;;;;;;;23.15;16.10;;;5.50;1.00;;;;;;5094980;28;21034;-82
2022/11/27 05:55:28;;;;;;;23.35;15.02;;;5.50;1.00;;;;;;5095544;28;20252;-83
2022/11/27 05:57:59;;;;;;;21.50;14.65;;;5.50;1.00;;;;;;5095081;28;20242;-82
2022/11/27 06:00:26;;;;;;;22.00;15.25;;;5.60;1.00;;;;;;5093992;28;20346;-81
2022/11/27 06:02:54;;;;;;;21.10;15.10;;;5.60;1.00;;;;;;5097450;28;20241;-80
2022/11/27 06:05:21;;;;;;;21.00;15.40;;;5.60;1.00;;;;;;5089660;28;20228;-81
2022/11/27 06:07:48;;;;;;;20.65;15.23;;;5.50;1.00;;;;;;5089304;27;20837;-83
2022/11/27 06:10:23;;;;;;;30.52;17.77;;;5.50;1.00;;;;;;5091437;28;20754;-79
2022/11/27 06:12:50;;;;;;;28.23;15.75;;;5.30;1.00;;;;;;5094713;28;20243;-82
2022/11/27 06:15:17;;;;;;;22.65;16.73;;;5.20;1.00;;;;;;5091704;27;20229;-81
2022/11/27 06:17:44;;;;;;;28.48;15.82;;;5.10;1.00;;;;;;5085211;28;20234;-79
2022/11/27 06:20:12;;;;;;;27.52;16.00;;;5.10;1.00;;;;;;5088948;28;20245;-82
2022/11/27 06:22:39;;;;;;;23.13;15.57;;;5.10;1.00;;;;;;5085699;28;21022;-80
2022/11/27 06:25:08;;;;;;;22.08;14.82;;;5.10;1.00;;;;;;5085684;28;21194;-83
2022/11/27 06:27:38;;;;;;;26.52;16.00;;;5.10;1.00;;;;;;5086650;28;20441;-79
2022/11/27 06:30:06;;;;;;;24.02;16.50;;;5.00;1.00;;;;;;5096104;28;20321;-81
2022/11/27 06:32:33;;;;;;;22.92;17.13;;;5.00;1.00;;;;;;5093344;28;20244;-82
2022/11/27 06:35:00;;;;;;;26.60;15.95;;;4.90;1.00;;;;;;5097677;28;20331;-82
2022/11/27 06:37:27;;;;;;;23.27;14.82;;;4.90;1.00;;;;;;5097033;28;20304;-82
2022/11/27 06:39:54;;;;;;;20.35;14.50;;;4.90;1.00;;;;;;5094645;28;20243;-80
2022/11/27 06:42:21;;;;;;;23.02;16.52;;;4.90;1.00;;;;;;5091565;28;20261;-81
2022/11/27 06:44:49;;;;;;;33.45;17.52;;;4.80;1.00;;;;;;5089916;28;20336;-80
2022/11/27 06:47:16;;;;;;;22.40;16.05;;;4.80;1.00;;;;;;5092192;28;20266;-79
2022/11/27 06:49:43;;;;;;;33.60;17.85;;;4.90;1.00;;;;;;5085592;28;20242;-81
2022/11/27 06:52:10;;;;;;;23.70;15.95;;;4.90;1.00;;;;;;5083580;28;20242;-81
2022/11/27 06:54:37;;;;;;;27.95;18.50;;;4.90;1.00;;;;;;5091244;28;20237;-79
2022/11/27 06:57:04;;;;;;;24.13;17.08;;;4.90;1.00;;;;;;5091358;27;20989;-79
2022/11/27 06:59:31;;;;;;;25.60;17.92;;;4.90;1.00;;;;;;5091728;28;20241;-80
2022/11/27 07:01:59;;;;;;;34.47;16.95;;;4.80;1.00;;;;;;5087433;28;20980;-80
2022/11/27 07:04:26;;;;;;;29.10;19.45;;;4.80;1.00;;;;;;5085453;28;20273;-80
2022/11/27 07:06:56;;;;;;;30.80;19.27;;;4.80;1.00;;;;;;5077277;28;20243;-81
2022/11/27 07:09:23;;;;;;;26.52;16.10;;;4.80;1.00;;;;;;5085134;28;20303;-82
2022/11/27 07:11:50;;;;;;;30.75;18.38;;;4.80;1.00;;;;;;5079116;28;20239;-80
2022/11/27 07:14:17;;;;;;;26.85;17.50;;;4.80;1.00;;;;;;5079208;28;20239;-81
2022/11/27 07:16:45;;;;;;;30.45;18.85;;;4.80;1.00;;;;;;5091372;28;20261;-82
2022/11/27 07:19:15;;;;;;;27.92;18.60;;;4.70;1.00;;;;;;5095086;28;20236;-83
2022/11/27 07:21:42;;;;;;;26.25;17.42;;;4.70;1.00;;;;;;5092199;28;20233;-82
2022/11/27 07:24:11;;;;;;;25.63;16.88;;;4.70;1.00;;;;;;5092194;28;20233;-82
2022/11/27 07:26:38;;;;;;;26.95;16.08;;;4.60;1.00;;;;;;5093881;28;20264;-81
2022/11/27 07:29:10;;;;;;;23.92;16.10;;;4.60;1.00;;;;;;5092478;28;20655;-80
2022/11/27 07:31:37;;;;;;;27.95;16.05;;;4.60;1.00;;;;;;5088930;28;20236;-81
2022/11/27 07:34:11;;;;;;;31.80;18.55;;;4.60;1.00;;;;;;5094839;28;20850;-82
2022/11/27 07:36:39;;;;;;;32.85;17.15;;;4.60;1.00;;;;;;5090942;27;20238;-82
2022/11/27 07:39:06;;;;;;;25.90;17.90;;;4.50;1.00;;;;;;5090760;28;20235;-82
2022/11/27 07:41:33;;;;;;;21.58;15.75;;;4.60;1.00;;;;;;5094288;28;20242;-81
2022/11/27 07:44:00;;;;;;;26.05;16.50;;;4.50;1.00;;;;;;5090976;28;21075;-79
2022/11/27 07:46:28;;;;;;;31.27;16.70;;;4.50;1.00;;;;;;5088654;28;20413;-80
2022/11/27 07:49:02;;;;;;;30.58;18.17;;;4.60;1.00;;;;;;5094358;28;20236;-82
2022/11/27 07:51:29;;;;;;;30.55;17.98;;;4.70;1.00;;;;;;5093083;28;20236;-81
2022/11/27 07:54:03;;;;;;;28.05;18.50;;;4.70;1.00;;;;;;5093972;28;20250;-81
2022/11/27 07:56:30;;;;;;;27.98;17.42;;;4.80;1.00;;;;;;5098466;28;20245;-81
2022/11/27 07:59:03;;;;;;;48.95;33.58;;;4.90;1.00;;;;;;5085674;28;20221;-79
2022/11/27 08:01:31;;;;;;;26.60;18.88;;;4.90;1.00;;;;;;5086083;28;20673;-79
2022/11/27 08:04:03;;;;;;;30.25;18.35;;;5.00;1.00;;;;;;5084601;28;20233;-79
2022/11/27 08:06:30;;;;;;;24.45;17.05;;;5.00;1.00;;;;;;5089589;28;20238;-81
2022/11/27 08:09:02;;;;;;;28.67;18.20;;;5.10;1.00;;;;;;5086873;28;20238;-79
2022/11/27 08:11:34;;;;;;;28.02;19.60;;;5.20;1.00;;;;;;5085188;28;20237;-81
2022/11/27 08:14:03;;;;;;;27.95;18.63;;;5.30;1.00;;;;;;5077163;28;20230;-79
2022/11/27 08:16:31;;;;;;;27.98;20.30;;;5.30;1.00;;;;;;5081017;28;20232;-80
2022/11/27 08:18:59;;;;;;;24.73;18.38;;;5.30;1.00;;;;;;5087040;28;21089;-80
2022/11/27 08:21:31;;;;;;;27.30;18.00;;;5.40;1.00;;;;;;5073688;28;20234;-79
2022/11/27 08:23:58;;;;;;;33.50;27.92;;;5.60;1.00;;;;;;5103433;27;20273;-79
2022/11/27 08:26:27;;;;;;;30.45;19.88;;;5.60;1.00;;;;;;5086112;28;20301;-80
2022/11/27 08:28:54;;;;;;;30.02;19.80;;;5.90;1.00;;;;;;5085419;28;21063;-79
2022/11/27 08:31:23;;;;;;;28.83;21.00;;;5.90;1.00;;;;;;5081964;28;20251;-79
2022/11/27 08:33:50;;;;;;;26.95;20.20;;;5.90;1.00;;;;;;5088838;28;20241;-79
2022/11/27 08:36:21;;;;;;;29.02;20.48;;;6.00;1.00;;;;;;5086428;28;20300;-81
2022/11/27 08:38:49;;;;;;;25.50;20.40;;;5.90;1.00;;;;;;5088638;28;20239;-82
2022/11/27 08:41:16;;;;;;;28.55;20.35;;;5.80;1.00;;;;;;5094215;28;20735;-82
2022/11/27 08:43:54;;;;;;;26.40;20.05;;;5.80;1.00;;;;;;5093950;28;20232;-82
2022/11/27 08:46:21;;;;;;;25.27;18.40;;;5.90;1.00;;;;;;5091868;28;20302;-79
2022/11/27 08:48:49;;;;;;;22.08;17.67;;;5.90;1.00;;;;;;5089081;28;20234;-78
2022/11/27 08:51:16;;;;;;;24.13;18.13;;;5.70;1.00;;;;;;5080748;28;21039;-79
2022/11/27 08:53:44;;;;;;;22.52;17.50;;;5.70;1.00;;;;;;5081367;28;20251;-80
2022/11/27 08:56:16;;;;;;;23.52;16.88;;;5.70;1.00;;;;;;5088279;28;20347;-79
2022/11/27 08:58:49;;;;;;;24.30;16.40;;;5.70;1.00;;;;;;5085123;28;20243;-78
2022/11/27 09:01:19;;;;;;;21.23;16.80;;;5.70;1.00;;;;;;5084404;28;20239;-81
2022/11/27 09:03:47;;;;;;;21.40;16.90;;;5.80;1.00;;;;;;5088640;27;21166;-80
2022/11/27 09:06:17;;;;;;;26.75;16.77;;;5.70;1.00;;;;;;5093906;28;21046;-80
2022/11/27 09:08:49;;;;;;;26.20;17.70;;;5.80;1.00;;;;;;5087644;28;20382;-80
2022/11/27 09:11:20;;;;;;;26.08;16.80;;;5.80;1.00;;;;;;5092333;28;20239;-82
2022/11/27 09:13:59;;;;;;;20.27;14.82;;;6.00;1.00;;;;;;5093922;28;20241;-81
2022/11/27 09:16:31;;;;;;;21.15;14.40;;;6.10;1.00;;;;;;5091020;28;20866;-81
2022/11/27 09:19:01;;;;;;;19.92;14.98;;;6.30;1.00;;;;;;5094943;28;20240;-81
2022/11/27 09:21:31;;;;;;;23.05;14.80;;;6.30;1.00;;;;;;5086694;28;20260;-81
2022/11/27 09:24:00;;;;;;;22.20;15.73;;;6.50;1.00;;;;;;5086113;28;20238;-79
2022/11/27 09:26:32;;;;;;;23.67;16.88;;;6.60;1.00;;;;;;5090334;28;22229;-80
2022/11/27 09:29:01;;;;;;;21.33;15.50;;;6.90;1.00;;;;;;5086879;28;20827;-79
2022/11/27 09:31:29;;;;;;;26.05;15.20;;;7.10;1.00;;;;;;5090006;28;20249;-79
2022/11/27 09:34:01;;;;;;;16.70;14.07;;;7.30;1.00;;;;;;5081544;28;21088;-79
2022/11/27 09:36:28;;;;;;;21.20;13.88;;;7.30;1.00;;;;;;5078259;28;20293;-85
2022/11/27 09:39:03;;;;;;;18.60;14.48;;;7.40;1.00;;;;;;5090881;28;20288;-80
2022/11/27 09:41:45;;;;;;;18.73;14.23;;;7.50;1.00;;;;;;5082314;28;20244;-81
2022/11/27 09:44:51;;;;;;;18.95;13.85;;;8.00;1.00;;;;;;5095096;28;20328;-82
2022/11/27 09:47:33;;;;;;;21.92;13.43;;;8.30;1.00;;;;;;5083684;28;20396;-83
2022/11/27 09:50:05;;;;;;;19.30;13.80;;;8.50;1.00;;;;;;5093271;28;20228;-81
2022/11/27 09:52:51;;;;;;;18.38;13.23;;;8.60;1.00;;;;;;5085346;28;20285;-80
2022/11/27 09:55:36;;;;;;;18.30;12.45;;;8.90;1.00;;;;;;5057340;28;20244;-83
2022/11/27 09:58:19;;;;;;;18.42;12.05;;;9.20;1.00;;;;;;5063793;28;20325;-81
2022/11/27 10:00:58;;;;;;;19.23;13.70;;;9.00;1.00;;;;;;5068487;28;21032;-80
2022/11/27 10:03:38;;;;;;;18.20;12.45;;;8.80;1.00;;;;;;5040772;28;20251;-79
2022/11/27 10:06:20;;;;;;;18.38;12.05;;;8.50;1.00;;;;;;5047239;28;20233;-81
2022/11/27 10:09:07;;;;;;;20.73;13.25;;;8.50;1.00;;;;;;5034817;28;20869;-81
2022/11/27 10:11:45;;;;;;;18.35;11.02;;;8.90;1.00;;;;;;5083529;28;20246;-81
2022/11/27 10:17:37;;;;;;;17.38;11.48;;;9.80;1.00;;;;;;5048818;28;20252;-81
2022/11/27 10:20:27;;;;;;;15.65;11.45;;;9.50;1.00;;;;;;5085218;27;20232;-84
2022/11/27 10:23:06;;;;;;;15.73;11.53;;;9.70;1.00;;;;;;5083587;27;21535;-84
2022/11/27 10:25:41;;;;;;;20.70;12.93;;;9.80;1.00;;;;;;5075336;27;20476;-83
2022/11/27 10:28:37;;;;;;;17.37;11.27;;;10.40;1.00;;;;;;5097160;27;20268;-82
2022/11/27 10:37:17;;;;;;;14.60;10.30;;;12.70;1.00;;;;;;5079173;28;20452;-83
2022/11/27 10:39:57;;;;;;;13.53;10.10;;;13.60;1.00;;;;;;5071062;28;20503;-81
2022/11/27 10:42:34;;;;;;;13.27;9.87;;;13.50;1.00;;;;;;5074806;28;21002;-82
2022/11/27 10:45:08;;;;;;;12.70;10.20;;;13.90;1.00;;;;;;5094931;28;21335;-82
2022/11/27 10:47:39;;;;;;;14.20;10.73;;;13.50;1.00;;;;;;5092913;28;20442;-82
2022/11/27 10:50:13;;;;;;;12.17;9.37;;;13.30;1.00;;;;;;5086733;28;21207;-80
2022/11/27 10:52:46;;;;;;;14.50;10.67;;;13.70;1.00;;;;;;5077224;28;20480;-81
2022/11/27 10:55:26;;;;;;;13.23;9.67;;;13.90;1.00;;;;;;5094744;28;20507;-84
2022/11/27 10:58:17;;;;;;;14.70;10.27;;;13.70;1.00;;;;;;5093765;28;20457;-77
2022/11/27 11:00:46;;;;;;;14.60;9.73;;;14.40;1.00;;;;;;5091684;28;20456;-80
2022/11/27 11:03:17;;;;;;;18.50;11.90;;;15.00;1.00;;;;;;5096985;28;20483;-85
2022/11/27 11:05:58;;;;;;;12.90;10.20;;;15.00;1.00;;;;;;5096923;28;20429;-81
2022/11/27 11:08:28;;;;;;;12.07;9.80;;;15.00;1.00;;;;;;5087469;28;20527;-83
2022/11/27 11:11:03;;;;;;;12.70;10.10;;;14.60;1.00;;;;;;5094252;28;20432;-84
2022/11/27 11:13:32;;;;;;;14.13;9.27;;;14.70;1.00;;;;;;5089131;28;20417;-81
2022/11/27 11:16:03;;;;;;;11.20;9.10;;;15.40;1.00;;;;;;5090644;28;20531;-87
2022/11/27 11:18:43;;;;;;;15.00;9.37;;;15.70;1.00;;;;;;5066839;28;20425;-81
2022/11/27 11:21:24;;;;;;;13.07;9.07;;;16.20;1.00;;;;;;5095261;28;20641;-80
2022/11/27 11:23:57;;;;;;;13.63;8.87;;;16.70;1.00;;;;;;5096762;27;20485;-81
2022/11/27 11:26:28;;;;;;;15.20;9.97;;;17.00;1.00;;;;;;5062829;28;20485;-80
2022/11/27 11:28:58;;;;;;;15.00;9.47;;;16.90;1.00;;;;;;5085692;28;20441;-81
2022/11/27 11:31:32;;;;;;;14.47;9.30;;;16.40;1.00;;;;;;5092871;28;20508;-81
2022/11/27 11:34:06;;;;;;;12.13;8.70;;;15.20;1.00;;;;;;5078244;28;20454;-78
2022/11/27 11:36:47;;;;;;;12.60;8.43;;;13.90;1.00;;;;;;5082814;28;20473;-79
2022/11/27 11:39:32;;;;;;;12.33;8.80;;;13.00;1.00;;;;;;5086621;28;20461;-79
2022/11/27 11:41:59;;;;;;;15.17;8.60;;;12.40;1.00;;;;;;5082480;28;21227;-78
2022/11/27 11:44:44;;;;;;;16.10;9.00;;;12.40;1.00;;;;;;5087947;28;20401;-80
2022/11/27 11:47:19;;;;;;;13.97;8.97;;;12.70;1.00;;;;;;5098420;28;20538;-79
2022/11/27 11:49:47;;;;;;;13.53;7.77;;;13.30;1.00;;;;;;5098672;28;20424;-79
2022/11/27 11:52:49;;;;;;;13.37;8.60;;;13.80;1.00;;;;;;5101780;28;20546;-79
2022/11/27 11:55:34;;;;;;;13.33;8.60;;;13.90;1.00;;;;;;5085856;28;21316;-78
2022/11/27 11:58:35;;;;;;;12.50;7.83;;;14.40;1.00;;;;;;5098498;28;20515;-80
2022/11/27 12:01:26;;;;;;;16.13;8.50;;;15.50;1.00;;;;;;5098766;28;20429;-81
2022/11/27 12:04:07;;;;;;;10.60;7.50;;;15.40;1.00;;;;;;5099884;28;20452;-80
2022/11/27 12:06:54;;;;;;;12.50;8.37;;;15.10;1.00;;;;;;5102926;28;20520;-80
2022/11/27 12:09:36;;;;;;;20.27;8.80;;;15.60;1.00;;;;;;5098622;28;20456;-80
2022/11/27 12:12:25;;;;;;;13.17;8.97;;;16.10;1.00;;;;;;5098813;28;20421;-80
2022/11/27 12:14:59;;;;;;;13.87;8.50;;;16.60;1.00;;;;;;5093411;28;20893;-78
2022/11/27 12:17:48;;;;;;;13.00;8.57;;;17.10;1.00;;;;;;5099474;28;20406;-79
2022/11/27 12:20:36;;;;;;;16.90;9.57;;;17.40;1.00;;;;;;5097758;27;20472;-81
2022/11/27 12:23:46;;;;;;;14.13;8.63;;;17.80;1.00;;;;;;5098984;28;20411;-82
2022/11/27 12:26:27;;;;;;;13.30;8.37;;;17.40;1.00;;;;;;5097521;28;20455;-79
2022/11/27 12:29:29;;;;;;;18.30;8.47;;;16.40;1.00;;;;;;5093324;28;20459;-78
2022/11/27 12:32:37;;;;;;;11.17;7.10;;;14.90;1.00;;;;;;5087404;28;20476;-78
2022/11/27 12:35:32;;;;;;;12.30;7.63;;;13.20;1.00;;;;;;5094136;28;20434;-80
2022/11/27 12:38:36;;;;;;;13.03;8.43;;;12.20;1.00;;;;;;5093506;28;20993;-81
2022/11/27 12:54:51;;;;;;;17.37;10.10;;;12.10;1.00;;;;;;6197564;22;1536112;-81
2022/11/27 12:57:37;;;;;;;11.73;8.30;;;10.40;1.00;;;;;;6255315;22;20208;-78
2022/11/27 13:00:15;;;;;;;13.80;9.20;;;10.40;1.00;;;;;;6270305;22;20406;-81
2022/11/27 13:02:55;;;;;;;18.17;9.17;;;10.30;1.00;;;;;;6271615;22;20416;-79
2022/11/27 13:05:30;;;;;;;14.97;8.57;;;10.30;1.00;;;;;;6269259;22;20436;-79
2022/11/27 13:08:00;;;;;;;13.63;9.10;;;10.00;1.00;;;;;;6269242;22;20419;-80
2022/11/27 13:10:35;;;;;;;17.10;9.27;;;9.80;1.00;;;;;;6268580;22;20386;-78
2022/11/27 13:13:10;;;;;;;13.57;9.27;;;9.70;1.00;;;;;;6268769;22;20221;-78
2022/11/27 13:15:47;;;;;;;15.37;9.10;;;9.60;1.00;;;;;;6267606;22;20416;-83
2022/11/27 13:18:30;;;;;;;15.60;9.00;;;9.50;1.00;;;;;;6268916;22;20423;-78
2022/11/27 13:21:00;;;;;;;13.60;9.02;;;9.40;1.00;;;;;;6299614;22;20222;-80
2022/11/27 13:23:31;;;;;;;16.30;9.65;;;9.40;1.00;;;;;;6300840;22;20208;-80
2022/11/27 13:26:07;;;;;;;16.77;9.90;;;9.30;1.00;;;;;;6299047;22;20219;-80
2022/11/27 13:28:48;;;;;;;16.20;9.45;;;9.30;1.00;;;;;;6299530;22;20207;-79
2022/11/27 13:31:28;;;;;;;16.23;9.88;;;9.10;1.00;;;;;;6297815;22;20222;-79
2022/11/27 13:34:08;;;;;;;14.48;8.75;;;9.00;1.00;;;;;;6299028;22;20215;-80
2022/11/27 13:36:39;;;;;;;14.10;10.02;;;9.00;1.00;;;;;;6288239;22;20990;-81
2022/11/27 13:39:33;;;;;;;15.20;9.03;;;8.90;1.00;;;;;;6300042;22;20390;-78
2022/11/27 13:42:27;;;;;;;14.13;8.52;;;8.70;1.00;;;;;;6300292;22;20431;-79
2022/11/27 13:44:58;;;;;;;13.00;8.93;;;8.50;1.00;;;;;;6300479;22;20222;-81
2022/11/27 13:47:40;;;;;;;13.90;8.40;;;8.50;1.00;;;;;;6301102;22;20266;-81
2022/11/27 13:50:12;;;;;;;20.38;9.95;;;8.40;1.00;;;;;;6285628;22;20249;-80